Terminal Aerodrome Forecast
Issued by NWS

Current Version | Previous Version | Text Only | Print | Product List | Glossary On
Versions: 1 2 3 4 5 6 7 8 9 10 11 12
000
FTUS45 KRIW 032300
TAFWRL
TAF
KWRL 032324Z 0400/0424 04006KT P6SM VCSH SCT070 BKN100
     FM040800 VRB05KT P6SM SCT060 BKN120
     FM041100 VRB03KT P6SM VCFG SCT012
     FM041600 VRB06KT P6SM SCT250=

USA.gov is the U.S. government's official web portal to all federal, state and local government web resources and services.